Time;durP1;ratioP1;P1;durP2;ratioP2;P2;SDS_P1;SDS_P2;PMS_P1;PMS_P2;Temp;Humidity;BMP_temperature;BMP_pressure;BME280_temperature;BME280_humidity;BME280_pressure;Samples;Min_cycle;Max_cycle;Signal;HPM_P1;HPM_P2
2023/10/22 00:00:43;;;;;;;7.30;1.98;;;12.50;99.90;;;;;;6180879;23;20051;-82
2023/10/22 00:03:09;;;;;;;4.38;1.58;;;12.60;99.90;;;;;;6144084;23;20599;-82
2023/10/22 00:05:35;;;;;;;4.75;1.50;;;12.60;99.90;;;;;;6167902;23;20045;-82
2023/10/22 00:08:01;;;;;;;5.68;1.60;;;12.70;99.90;;;;;;6144214;23;20027;-82
2023/10/22 00:10:27;;;;;;;4.78;1.38;;;12.60;99.90;;;;;;6164104;23;20350;-82
2023/10/22 00:12:56;;;;;;;4.93;1.60;;;12.60;99.90;;;;;;6119252;23;20076;-81
2023/10/22 00:15:23;;;;;;;4.88;1.40;;;12.60;99.90;;;;;;6117283;23;20016;-82
2023/10/22 00:17:49;;;;;;;5.67;1.50;;;12.60;99.90;;;;;;6144362;23;20075;-82
2023/10/22 00:20:15;;;;;;;3.40;1.40;;;12.60;99.90;;;;;;6117894;23;20010;-81
2023/10/22 00:22:40;;;;;;;5.78;1.88;;;12.60;99.90;;;;;;6167907;23;20363;-82
2023/10/22 00:25:07;;;;;;;6.00;1.30;;;12.60;99.90;;;;;;6115374;23;20088;-82
2023/10/22 00:27:32;;;;;;;4.63;1.30;;;12.60;99.90;;;;;;6117907;23;20112;-81
2023/10/22 00:29:59;;;;;;;4.18;1.33;;;12.60;99.90;;;;;;6116918;23;20457;-82
2023/10/22 00:32:25;;;;;;;5.93;1.30;;;12.60;99.90;;;;;;6119255;23;20195;-82
2023/10/22 00:34:50;;;;;;;4.53;1.42;;;12.70;99.90;;;;;;6142009;23;20028;-81
2023/10/22 00:37:16;;;;;;;10.00;1.52;;;12.60;99.90;;;;;;6168386;23;20023;-82
2023/10/22 00:39:42;;;;;;;4.65;1.48;;;12.70;99.90;;;;;;6140882;23;20505;-81
2023/10/22 00:42:09;;;;;;;6.78;1.35;;;12.70;99.90;;;;;;6117632;23;20017;-82
2023/10/22 00:44:35;;;;;;;4.45;1.20;;;12.70;99.90;;;;;;6118833;23;20024;-82
2023/10/22 00:47:05;;;;;;;5.05;1.33;;;12.80;99.90;;;;;;6167886;23;20023;-82
2023/10/22 00:49:31;;;;;;;4.72;1.10;;;12.80;99.90;;;;;;6168300;23;20023;-82
2023/10/22 00:51:57;;;;;;;5.15;1.30;;;12.80;99.90;;;;;;6118078;23;20032;-82
2023/10/22 00:54:27;;;;;;;7.07;1.60;;;12.80;99.90;;;;;;6143568;23;20056;-81
2023/10/22 00:56:53;;;;;;;4.78;1.55;;;12.80;99.90;;;;;;6142229;23;20088;-82
2023/10/22 00:59:20;;;;;;;6.15;1.60;;;12.90;99.90;;;;;;6119439;23;20016;-82
2023/10/22 01:01:46;;;;;;;6.00;1.50;;;12.90;99.90;;;;;;6118119;23;20516;-82
2023/10/22 01:04:15;;;;;;;6.78;1.17;;;12.90;99.90;;;;;;6120491;23;20012;-81
2023/10/22 01:06:41;;;;;;;5.65;1.20;;;12.90;99.90;;;;;;6169218;23;20021;-82
2023/10/22 01:09:09;;;;;;;4.50;1.30;;;13.00;99.90;;;;;;6169262;23;20354;-82
2023/10/22 01:11:37;;;;;;;5.13;1.27;;;12.90;99.90;;;;;;6141140;23;20357;-82
2023/10/22 01:14:05;;;;;;;4.43;1.10;;;12.90;99.90;;;;;;6119947;23;20025;-81
2023/10/22 01:16:32;;;;;;;6.10;1.58;;;13.00;99.90;;;;;;6144333;23;20024;-81
2023/10/22 01:18:58;;;;;;;4.18;0.95;;;13.00;99.90;;;;;;6119342;23;20091;-82
2023/10/22 01:21:24;;;;;;;3.80;1.15;;;13.00;99.90;;;;;;6119167;23;20005;-81
2023/10/22 01:23:50;;;;;;;4.18;1.40;;;13.00;99.90;;;;;;6169367;23;20024;-82
2023/10/22 01:26:15;;;;;;;5.35;1.10;;;13.00;99.90;;;;;;6140408;23;20009;-81
2023/10/22 01:28:41;;;;;;;4.78;1.20;;;13.00;99.90;;;;;;6144855;23;20020;-81
2023/10/22 01:31:12;;;;;;;3.20;1.08;;;12.90;99.90;;;;;;6119350;23;20017;-81
2023/10/22 01:33:37;;;;;;;2.97;1.13;;;12.80;99.90;;;;;;6144880;23;20021;-82
2023/10/22 01:36:03;;;;;;;4.30;1.15;;;12.80;99.90;;;;;;6145648;23;20021;-82
2023/10/22 01:38:29;;;;;;;2.88;1.08;;;12.70;99.90;;;;;;6171171;23;20021;-82
2023/10/22 01:40:55;;;;;;;3.35;1.10;;;12.60;99.90;;;;;;6119158;23;20015;-82
2023/10/22 01:43:20;;;;;;;3.53;1.30;;;12.60;99.90;;;;;;6171138;23;20228;-82
2023/10/22 01:45:46;;;;;;;5.40;1.70;;;12.50;99.90;;;;;;6120663;23;20017;-82
2023/10/22 01:48:11;;;;;;;4.22;1.23;;;12.50;99.90;;;;;;6122035;23;20327;-81
2023/10/22 01:50:37;;;;;;;5.55;1.30;;;12.40;99.90;;;;;;6121252;23;20017;-82
2023/10/22 01:53:03;;;;;;;4.95;1.33;;;12.30;99.90;;;;;;6120973;23;20564;-82
2023/10/22 01:55:28;;;;;;;3.75;1.48;;;12.40;99.90;;;;;;6142740;23;20669;-82
2023/10/22 01:57:54;;;;;;;4.82;1.30;;;12.30;99.90;;;;;;6120219;23;20422;-82
2023/10/22 02:00:20;;;;;;;4.07;1.40;;;12.30;99.90;;;;;;6120333;23;20013;-82
2023/10/22 02:02:46;;;;;;;4.32;1.63;;;12.30;99.90;;;;;;6144866;23;20370;-82
2023/10/22 02:05:11;;;;;;;5.50;1.60;;;12.30;99.90;;;;;;6118172;23;20096;-82
2023/10/22 02:07:40;;;;;;;7.18;1.27;;;12.30;99.90;;;;;;6167658;23;20013;-82
2023/10/22 02:10:08;;;;;;;4.95;1.40;;;12.30;99.90;;;;;;6141333;23;20017;-81
2023/10/22 02:12:34;;;;;;;4.03;1.65;;;12.30;99.90;;;;;;6120893;23;20021;-82
2023/10/22 02:14:59;;;;;;;4.30;1.33;;;12.30;99.90;;;;;;6120632;23;20358;-82
2023/10/22 02:17:25;;;;;;;4.35;1.42;;;12.30;99.90;;;;;;6170234;23;20103;-82
2023/10/22 02:19:51;;;;;;;3.35;1.42;;;12.30;99.90;;;;;;6117670;23;20079;-82
2023/10/22 02:22:16;;;;;;;5.95;1.90;;;12.30;99.90;;;;;;6120223;23;20466;-82
2023/10/22 02:24:43;;;;;;;3.58;1.33;;;12.30;99.90;;;;;;6167706;23;20021;-82
2023/10/22 02:27:08;;;;;;;4.18;1.60;;;12.30;99.90;;;;;;6120892;23;20512;-82
2023/10/22 02:29:36;;;;;;;5.03;1.98;;;12.30;99.90;;;;;;6121199;23;20021;-82
2023/10/22 02:32:05;;;;;;;4.78;1.88;;;12.30;99.90;;;;;;6145083;23;20096;-82
2023/10/22 02:34:31;;;;;;;4.13;1.98;;;12.30;99.90;;;;;;6120612;23;20111;-82
2023/10/22 02:36:56;;;;;;;4.65;2.15;;;12.30;99.90;;;;;;6120638;23;20068;-82
2023/10/22 02:39:22;;;;;;;4.88;2.40;;;12.30;99.90;;;;;;6169104;23;20016;-82
2023/10/22 02:41:48;;;;;;;6.53;2.30;;;12.30;99.90;;;;;;6115721;23;20016;-82
2023/10/22 02:44:13;;;;;;;4.18;2.55;;;12.30;99.90;;;;;;6168761;23;20016;-82
2023/10/22 02:46:39;;;;;;;3.45;2.50;;;12.20;99.90;;;;;;6120679;23;20184;-82
2023/10/22 02:49:05;;;;;;;6.43;2.78;;;12.30;99.90;;;;;;6145387;23;20099;-83
2023/10/22 02:51:31;;;;;;;5.05;2.40;;;12.30;99.90;;;;;;6144456;23;20020;-82
2023/10/22 02:53:57;;;;;;;8.38;3.13;;;12.30;99.90;;;;;;6145135;23;20352;-83
2023/10/22 02:56:23;;;;;;;7.15;2.58;;;12.30;99.90;;;;;;6140337;23;20020;-82
2023/10/22 02:58:49;;;;;;;6.70;2.55;;;12.30;99.90;;;;;;6142555;23;20021;-82
2023/10/22 03:01:17;;;;;;;4.22;2.13;;;12.30;99.90;;;;;;6143107;23;20073;-82
2023/10/22 03:03:43;;;;;;;4.80;2.30;;;12.40;99.90;;;;;;6145517;23;20013;-82
2023/10/22 03:06:12;;;;;;;7.68;2.20;;;12.30;99.90;;;;;;6141551;23;20458;-84
2023/10/22 03:08:40;;;;;;;5.15;2.30;;;12.30;99.90;;;;;;6117864;23;20052;-82
2023/10/22 03:11:13;;;;;;;6.25;2.13;;;12.40;99.90;;;;;;6114771;23;20141;-82
2023/10/22 03:13:38;;;;;;;5.03;2.13;;;12.40;99.90;;;;;;6143639;23;20021;-82
2023/10/22 03:16:11;;;;;;;7.55;2.25;;;12.40;99.90;;;;;;6118669;23;20035;-82
2023/10/22 03:18:37;;;;;;;5.57;2.00;;;12.40;99.90;;;;;;6120272;23;20017;-82
2023/10/22 03:21:12;;;;;;;6.28;2.00;;;12.40;99.90;;;;;;6145089;23;20016;-82
2023/10/22 03:23:42;;;;;;;4.63;1.80;;;12.50;99.90;;;;;;6145218;23;20398;-82
2023/10/22 03:26:14;;;;;;;3.60;2.10;;;12.50;99.90;;;;;;6142645;23;20088;-82
2023/10/22 03:28:40;;;;;;;8.15;2.08;;;12.50;99.90;;;;;;6121146;23;20056;-82
2023/10/22 03:31:06;;;;;;;8.10;1.90;;;12.60;99.90;;;;;;6145264;23;20017;-82
2023/10/22 03:33:32;;;;;;;3.38;1.90;;;12.60;99.90;;;;;;6145720;23;20048;-82
2023/10/22 03:35:59;;;;;;;6.05;1.90;;;12.60;99.90;;;;;;6118983;23;20017;-81
2023/10/22 03:38:26;;;;;;;6.88;1.80;;;12.50;99.90;;;;;;6144864;23;20021;-82
2023/10/22 03:41:02;;;;;;;4.82;1.63;;;12.60;99.90;;;;;;6140005;23;20394;-82
2023/10/22 03:43:29;;;;;;;5.55;2.25;;;12.60;99.90;;;;;;6144211;23;20116;-82
2023/10/22 03:45:56;;;;;;;5.68;1.90;;;12.60;99.90;;;;;;6145111;23;20024;-82
2023/10/22 03:48:24;;;;;;;4.07;2.03;;;12.60;99.90;;;;;;6145412;23;20255;-82
2023/10/22 03:50:49;;;;;;;3.67;1.90;;;12.70;99.90;;;;;;6143083;23;20091;-82
2023/10/22 03:53:15;;;;;;;4.05;1.92;;;12.60;99.90;;;;;;6142262;23;20447;-82
2023/10/22 03:55:41;;;;;;;5.38;1.80;;;12.60;99.90;;;;;;6140045;23;20160;-81
2023/10/22 03:58:07;;;;;;;4.38;1.63;;;12.70;99.90;;;;;;6143417;23;20048;-82
2023/10/22 04:00:33;;;;;;;5.47;1.77;;;12.70;99.90;;;;;;6143813;23;20009;-82
2023/10/22 04:03:00;;;;;;;6.15;2.05;;;12.60;99.90;;;;;;6120939;23;20012;-82
2023/10/22 04:05:25;;;;;;;3.97;1.70;;;12.70;99.90;;;;;;6168958;23;20476;-82
2023/10/22 04:07:51;;;;;;;4.13;1.83;;;12.70;99.90;;;;;;6142368;23;20017;-82
2023/10/22 04:10:17;;;;;;;1.92;1.52;;;12.70;99.90;;;;;;6139293;23;20047;-82
2023/10/22 04:12:43;;;;;;;2.38;1.65;;;12.70;99.90;;;;;;6141859;23;20394;-82
2023/10/22 04:15:09;;;;;;;6.65;2.00;;;12.70;99.90;;;;;;6143031;23;20077;-83
2023/10/22 04:17:48;;;;;;;5.53;1.83;;;12.70;99.90;;;;;;6143528;23;20028;-82
2023/10/22 04:20:14;;;;;;;3.72;1.70;;;12.80;99.90;;;;;;6144256;23;20435;-83
2023/10/22 04:22:42;;;;;;;3.33;1.70;;;12.80;99.90;;;;;;6144814;23;20009;-82
2023/10/22 04:25:08;;;;;;;2.65;1.48;;;12.70;99.90;;;;;;6141264;23;20478;-82
2023/10/22 04:27:34;;;;;;;2.58;1.85;;;12.70;99.90;;;;;;6144689;23;20017;-82
2023/10/22 04:30:00;;;;;;;2.45;1.60;;;12.70;99.90;;;;;;6142433;23;20017;-82
2023/10/22 04:32:26;;;;;;;2.80;1.40;;;12.80;99.90;;;;;;6117673;23;20092;-82
2023/10/22 04:34:51;;;;;;;3.00;1.50;;;12.80;99.90;;;;;;6141702;23;20020;-83
2023/10/22 04:37:19;;;;;;;2.30;1.63;;;12.70;99.90;;;;;;6142018;23;20021;-82
2023/10/22 04:39:45;;;;;;;2.58;1.40;;;12.70;99.90;;;;;;6139482;23;20661;-82
2023/10/22 04:42:10;;;;;;;1.80;1.38;;;12.80;99.90;;;;;;6140427;23;20012;-83
2023/10/22 04:44:36;;;;;;;1.77;1.40;;;12.70;99.90;;;;;;6141429;23;20129;-82
2023/10/22 04:47:02;;;;;;;1.42;1.33;;;12.70;99.90;;;;;;6142089;23;20024;-82
2023/10/22 04:49:30;;;;;;;2.60;1.50;;;12.70;99.90;;;;;;6143198;23;20389;-82
2023/10/22 04:51:56;;;;;;;4.03;1.38;;;12.80;99.90;;;;;;6118763;23;20027;-83
2023/10/22 04:54:23;;;;;;;1.98;1.70;;;12.80;99.90;;;;;;6144389;23;20181;-83
2023/10/22 04:56:49;;;;;;;2.03;1.30;;;12.80;99.90;;;;;;6141409;23;20044;-83
2023/10/22 04:59:15;;;;;;;3.92;1.67;;;12.70;99.90;;;;;;6119254;23;20466;-82
2023/10/22 05:01:40;;;;;;;4.20;1.50;;;12.80;99.90;;;;;;6144382;23;20410;-83
2023/10/22 05:04:06;;;;;;;1.92;1.60;;;12.90;99.90;;;;;;6145050;23;20187;-82
2023/10/22 05:06:37;;;;;;;2.35;1.73;;;12.90;99.90;;;;;;6121286;23;20178;-83
2023/10/22 05:09:03;;;;;;;2.33;1.55;;;12.80;99.90;;;;;;6119927;23;20335;-82
2023/10/22 05:11:28;;;;;;;3.53;2.20;;;12.90;99.90;;;;;;6141725;23;20023;-83
2023/10/22 05:13:54;;;;;;;3.55;2.10;;;12.80;99.90;;;;;;6144894;23;20733;-82
2023/10/22 05:16:20;;;;;;;5.07;2.58;;;12.90;99.90;;;;;;6145057;23;20046;-83
2023/10/22 05:18:45;;;;;;;3.00;2.47;;;13.00;99.90;;;;;;6145446;23;20096;-83
2023/10/22 05:21:11;;;;;;;4.07;2.70;;;12.90;99.90;;;;;;6143789;23;20017;-82
2023/10/22 05:23:37;;;;;;;4.40;2.70;;;12.90;99.90;;;;;;6144013;23;20104;-82
2023/10/22 05:26:13;;;;;;;3.28;2.72;;;13.00;99.90;;;;;;6138586;23;20017;-82
2023/10/22 05:28:39;;;;;;;6.82;2.97;;;13.00;99.90;;;;;;6144299;23;20347;-82
2023/10/22 05:31:17;;;;;;;5.72;2.97;;;13.00;99.90;;;;;;6118891;23;20020;-82
2023/10/22 05:33:43;;;;;;;4.30;3.00;;;13.00;99.90;;;;;;6118399;23;20369;-82
2023/10/22 05:36:20;;;;;;;3.33;2.90;;;13.00;99.90;;;;;;6142458;23;20372;-82
2023/10/22 05:38:52;;;;;;;3.92;2.88;;;13.00;99.90;;;;;;6144600;23;20461;-82
2023/10/22 05:41:22;;;;;;;4.97;3.00;;;13.10;99.90;;;;;;6138934;23;20009;-82
2023/10/22 05:43:52;;;;;;;3.75;2.83;;;13.10;99.90;;;;;;6167429;23;20021;-82
2023/10/22 05:46:18;;;;;;;4.72;3.10;;;13.10;99.90;;;;;;6117062;23;20017;-82
2023/10/22 05:48:44;;;;;;;4.13;2.95;;;13.20;99.90;;;;;;6143893;23;20029;-82
2023/10/22 05:51:10;;;;;;;2.88;2.40;;;13.10;99.90;;;;;;6143689;23;20039;-82
2023/10/22 05:53:35;;;;;;;4.50;2.80;;;13.20;99.90;;;;;;6143237;23;20017;-82
2023/10/22 05:56:01;;;;;;;4.78;2.60;;;13.10;99.90;;;;;;6141660;23;20583;-82
2023/10/22 05:58:27;;;;;;;3.20;2.35;;;13.30;99.90;;;;;;6120021;23;20060;-82
2023/10/22 06:00:53;;;;;;;3.20;2.47;;;13.20;99.90;;;;;;6118583;23;20017;-82
2023/10/22 06:03:19;;;;;;;3.92;2.08;;;13.20;99.90;;;;;;6145042;23;20463;-83
2023/10/22 06:05:45;;;;;;;5.10;2.10;;;13.30;99.90;;;;;;6143482;23;20013;-83
2023/10/22 06:08:11;;;;;;;1.80;1.60;;;13.40;99.90;;;;;;6144601;23;20140;-83
2023/10/22 06:10:44;;;;;;;1.60;1.27;;;13.50;99.90;;;;;;6141069;23;20036;-84
2023/10/22 06:13:11;;;;;;;1.15;0.98;;;13.50;99.90;;;;;;6124991;23;20300;-83
2023/10/22 06:15:44;;;;;;;1.20;0.80;;;13.50;99.90;;;;;;6154037;23;20023;-84
2023/10/22 06:18:13;;;;;;;2.17;0.80;;;13.50;99.90;;;;;;6207383;23;20407;-83
2023/10/22 06:20:39;;;;;;;1.48;0.90;;;13.30;99.90;;;;;;6210318;23;20027;-83
2023/10/22 06:23:22;;;;;;;1.55;1.00;;;13.40;99.90;;;;;;6206519;23;20019;-83
2023/10/22 06:25:59;;;;;;;1.27;0.80;;;13.30;99.90;;;;;;6207100;23;20012;-84
2023/10/22 06:28:33;;;;;;;1.95;1.00;;;13.30;99.90;;;;;;6207987;23;20016;-83
2023/10/22 06:31:07;;;;;;;0.63;0.60;;;13.30;99.90;;;;;;6211712;23;20371;-83
2023/10/22 06:33:41;;;;;;;0.77;0.60;;;13.20;99.90;;;;;;6207670;23;20016;-82
2023/10/22 06:36:14;;;;;;;2.42;0.80;;;13.10;99.90;;;;;;6207805;23;20009;-87
2023/10/22 06:38:41;;;;;;;3.78;1.08;;;13.00;99.90;;;;;;6200019;23;20041;-87
2023/10/22 06:41:15;;;;;;;6.47;1.45;;;12.90;99.90;;;;;;6197242;23;20473;-86
2023/10/22 06:43:41;;;;;;;1.48;0.90;;;12.70;99.90;;;;;;6199992;23;20020;-86
2023/10/22 06:46:07;;;;;;;1.52;1.05;;;12.60;99.90;;;;;;6174496;23;20268;-86
2023/10/22 06:48:33;;;;;;;1.95;1.10;;;12.60;99.90;;;;;;6175357;23;20028;-86
2023/10/22 06:50:59;;;;;;;3.90;1.20;;;12.60;99.90;;;;;;6199078;23;20020;-87
2023/10/22 06:53:25;;;;;;;6.55;1.60;;;12.50;99.90;;;;;;6150188;23;20012;-87
2023/10/22 06:55:50;;;;;;;5.25;1.92;;;12.60;99.90;;;;;;6171998;23;20028;-87
2023/10/22 06:58:16;;;;;;;7.18;2.83;;;12.50;99.90;;;;;;6200858;23;20024;-87
2023/10/22 07:00:42;;;;;;;4.32;1.58;;;12.60;99.90;;;;;;6175417;23;20024;-87
2023/10/22 07:03:09;;;;;;;6.68;1.42;;;12.60;99.90;;;;;;6199928;23;20020;-86
2023/10/22 07:05:35;;;;;;;6.88;2.03;;;12.50;99.90;;;;;;6199682;23;20481;-87
2023/10/22 07:08:01;;;;;;;6.63;2.17;;;12.60;99.90;;;;;;6200364;23;20005;-87
2023/10/22 07:10:26;;;;;;;5.60;1.80;;;12.60;99.90;;;;;;6147228;23;20083;-87
2023/10/22 07:12:53;;;;;;;4.43;1.98;;;12.70;99.90;;;;;;6174724;23;20012;-86
2023/10/22 07:15:19;;;;;;;5.03;2.47;;;12.60;99.90;;;;;;6174347;23;20124;-87
2023/10/22 07:17:45;;;;;;;6.20;2.22;;;12.60;99.90;;;;;;6174594;23;20024;-87
2023/10/22 07:20:12;;;;;;;5.97;2.10;;;12.60;99.90;;;;;;6174611;23;20068;-87
2023/10/22 07:22:38;;;;;;;4.88;2.00;;;12.70;99.90;;;;;;6174497;23;20342;-87
2023/10/22 07:25:04;;;;;;;8.32;2.20;;;12.80;99.90;;;;;;6173463;23;20012;-86
2023/10/22 07:27:30;;;;;;;8.93;2.50;;;12.80;99.90;;;;;;6200935;23;20075;-87
2023/10/22 07:29:56;;;;;;;4.25;2.03;;;12.80;99.90;;;;;;6174138;23;20016;-87
2023/10/22 07:32:21;;;;;;;4.53;2.30;;;12.80;99.90;;;;;;6175554;23;20044;-87
2023/10/22 07:34:47;;;;;;;7.03;2.40;;;12.70;99.90;;;;;;6200180;23;20304;-86
2023/10/22 07:37:14;;;;;;;7.05;2.38;;;12.70;99.90;;;;;;6174599;23;20023;-87
2023/10/22 07:39:42;;;;;;;3.47;2.20;;;12.70;99.90;;;;;;6197258;23;20405;-86
2023/10/22 07:42:09;;;;;;;5.63;2.22;;;12.60;99.90;;;;;;6171300;23;20013;-87
2023/10/22 07:44:34;;;;;;;2.78;2.05;;;12.60;99.90;;;;;;6171057;23;20016;-87
2023/10/22 07:47:00;;;;;;;3.80;2.40;;;12.70;99.90;;;;;;6196109;23;20087;-87
2023/10/22 07:49:26;;;;;;;6.45;2.60;;;12.70;99.90;;;;;;6170544;23;20721;-87
2023/10/22 07:51:51;;;;;;;4.05;2.75;;;12.60;99.90;;;;;;6195594;23;20052;-87
2023/10/22 07:54:17;;;;;;;3.60;2.50;;;12.70;99.90;;;;;;6171162;23;20017;-87
2023/10/22 07:56:43;;;;;;;3.35;2.45;;;12.70;99.90;;;;;;6168368;23;20017;-87
2023/10/22 07:59:09;;;;;;;6.90;2.80;;;12.70;99.90;;;;;;6171260;23;20715;-89
2023/10/22 08:01:35;;;;;;;3.42;2.55;;;12.70;99.90;;;;;;6171303;23;20366;-87
2023/10/22 08:04:01;;;;;;;4.10;2.65;;;12.70;99.90;;;;;;6173000;23;20024;-86
2023/10/22 08:06:26;;;;;;;7.13;3.47;;;12.60;99.90;;;;;;6198032;23;20013;-87
2023/10/22 08:08:54;;;;;;;5.68;2.55;;;12.70;99.90;;;;;;6173233;23;20013;-87
2023/10/22 08:11:20;;;;;;;3.33;2.40;;;12.70;99.90;;;;;;6194521;23;20020;-88
2023/10/22 08:13:45;;;;;;;7.55;2.65;;;12.80;99.90;;;;;;6198638;23;20358;-88
2023/10/22 08:16:12;;;;;;;7.03;2.70;;;12.90;99.90;;;;;;6178041;23;20103;-87
2023/10/22 08:18:38;;;;;;;7.05;2.65;;;12.90;99.90;;;;;;6175236;23;20341;-87
2023/10/22 08:21:06;;;;;;;5.63;2.38;;;13.00;99.90;;;;;;6173321;23;20063;-87
2023/10/22 08:23:32;;;;;;;7.22;2.35;;;13.00;99.90;;;;;;6199691;23;20153;-86
2023/10/22 08:25:58;;;;;;;8.55;2.50;;;13.10;99.90;;;;;;6193471;23;20013;-87
2023/10/22 08:28:24;;;;;;;5.10;2.10;;;13.20;99.90;;;;;;6170391;23;20086;-87
2023/10/22 08:30:50;;;;;;;5.30;2.50;;;13.20;99.90;;;;;;6172130;23;20069;-88
2023/10/22 08:33:18;;;;;;;6.22;2.63;;;13.40;99.90;;;;;;6198938;23;20022;-88
2023/10/22 08:35:44;;;;;;;4.10;2.22;;;13.30;99.90;;;;;;6199008;23;20013;-88
2023/10/22 08:38:10;;;;;;;7.80;2.47;;;13.30;99.90;;;;;;6175663;23;20020;-88
2023/10/22 08:40:38;;;;;;;3.70;1.90;;;13.30;99.90;;;;;;6171828;23;20044;-87
2023/10/22 08:43:17;;;;;;;2.92;2.00;;;13.40;99.90;;;;;;6199802;23;20146;-88
2023/10/22 08:45:46;;;;;;;5.07;2.17;;;13.60;99.90;;;;;;6198729;23;20260;-88
2023/10/22 08:48:15;;;;;;;5.55;1.85;;;13.40;99.90;;;;;;6199840;23;20048;-88
2023/10/22 08:50:46;;;;;;;3.05;1.70;;;13.50;99.90;;;;;;6200299;23;20013;-88
2023/10/22 08:53:13;;;;;;;5.68;2.00;;;13.50;99.90;;;;;;6200159;23;20023;-88
2023/10/22 08:55:46;;;;;;;5.65;2.08;;;13.60;99.90;;;;;;6172385;23;20027;-88
2023/10/22 08:58:19;;;;;;;3.55;1.70;;;13.60;99.90;;;;;;6200219;23;20354;-88
2023/10/22 09:00:49;;;;;;;3.35;1.45;;;13.70;99.90;;;;;;6174369;23;20055;-88
2023/10/22 09:03:17;;;;;;;4.80;1.90;;;13.70;99.90;;;;;;6174085;23;20040;-88
2023/10/22 09:05:43;;;;;;;6.80;1.98;;;13.80;99.90;;;;;;6196909;23;20088;-88
2023/10/22 09:08:09;;;;;;;2.83;1.60;;;13.70;99.90;;;;;;6222928;23;20517;-88
2023/10/22 09:10:37;;;;;;;6.93;1.58;;;13.80;99.90;;;;;;6168981;23;20118;-88
2023/10/22 09:13:15;;;;;;;2.47;1.30;;;13.90;99.90;;;;;;6197681;23;20421;-88
2023/10/22 09:15:46;;;;;;;2.53;1.17;;;13.90;99.90;;;;;;6196716;23;20026;-83
2023/10/22 09:18:12;;;;;;;1.50;1.10;;;14.00;99.90;;;;;;6196887;23;20091;-82
2023/10/22 09:20:38;;;;;;;2.80;0.90;;;14.10;99.90;;;;;;6197900;23;20013;-83
2023/10/22 09:23:18;;;;;;;5.40;1.20;;;14.00;99.90;;;;;;6199094;23;20009;-82
2023/10/22 09:25:46;;;;;;;6.95;1.40;;;14.10;99.90;;;;;;6196395;23;20016;-83
2023/10/22 09:28:24;;;;;;;2.67;1.13;;;14.40;99.90;;;;;;6199941;23;20012;-83
2023/10/22 09:30:58;;;;;;;2.30;1.10;;;14.40;99.90;;;;;;6199078;23;20024;-83
2023/10/22 09:33:37;;;;;;;3.15;1.50;;;14.60;99.90;;;;;;6199325;23;20345;-83
2023/10/22 09:36:07;;;;;;;3.60;1.20;;;14.40;99.90;;;;;;6199031;23;20417;-82
2023/10/22 09:38:47;;;;;;;1.98;0.90;;;14.60;99.90;;;;;;6200278;23;20043;-82
2023/10/22 09:41:23;;;;;;;3.35;1.02;;;14.30;99.90;;;;;;6196555;23;20339;-83
2023/10/22 09:43:53;;;;;;;4.57;1.40;;;14.50;99.90;;;;;;6174779;23;20012;-83
2023/10/22 09:46:33;;;;;;;2.45;0.90;;;14.10;99.90;;;;;;6199554;23;20013;-83
2023/10/22 09:49:03;;;;;;;5.13;1.20;;;14.00;99.90;;;;;;6200107;23;20199;-82
2023/10/22 09:51:34;;;;;;;1.20;0.73;;;14.40;99.90;;;;;;6199100;23;20017;-82
2023/10/22 09:54:05;;;;;;;3.55;1.23;;;14.20;99.90;;;;;;6200266;23;20437;-83
2023/10/22 09:56:32;;;;;;;8.63;1.13;;;14.40;99.90;;;;;;6199241;23;20554;-83
2023/10/22 09:59:07;;;;;;;2.85;1.02;;;14.30;99.90;;;;;;6176270;23;20025;-83
2023/10/22 10:01:37;;;;;;;3.33;1.15;;;14.50;99.90;;;;;;6201284;23;20345;-83
2023/10/22 10:04:04;;;;;;;1.35;0.73;;;14.50;99.90;;;;;;6176843;23;20012;-82
2023/10/22 10:06:31;;;;;;;2.30;0.85;;;14.50;99.90;;;;;;6200853;23;20024;-83
2023/10/22 10:08:58;;;;;;;2.75;0.80;;;14.30;99.90;;;;;;6176544;23;20027;-82
2023/10/22 10:11:24;;;;;;;2.53;1.10;;;14.30;99.90;;;;;;6173306;23;20016;-83
2023/10/22 10:13:50;;;;;;;3.17;1.35;;;14.40;99.90;;;;;;6201428;23;20016;-82
2023/10/22 10:16:16;;;;;;;4.97;1.67;;;14.20;99.90;;;;;;6174552;23;20075;-82
2023/10/22 10:19:06;;;;;;;2.80;0.85;;;14.10;99.90;;;;;;6199498;23;20028;-82
2023/10/22 10:21:38;;;;;;;2.13;0.80;;;14.00;99.90;;;;;;6173854;23;20095;-82
2023/10/22 10:24:23;;;;;;;3.22;0.70;;;14.20;99.90;;;;;;6201781;23;20012;-83
2023/10/22 10:27:11;;;;;;;34.63;3.00;;;14.10;99.90;;;;;;6173361;23;20116;-83
2023/10/22 10:29:37;;;;;;;2.60;0.82;;;14.10;99.90;;;;;;6152110;23;20357;-83
2023/10/22 10:32:15;;;;;;;2.25;0.70;;;14.10;99.90;;;;;;6200818;23;20016;-83
2023/10/22 10:34:43;;;;;;;3.00;0.40;;;14.00;99.90;;;;;;6201583;23;20027;-82
2023/10/22 10:37:11;;;;;;;0.70;0.47;;;14.40;99.90;;;;;;6200783;23;20052;-82
2023/10/22 10:39:53;;;;;;;0.93;0.50;;;14.50;99.90;;;;;;6174618;23;20448;-82
2023/10/22 10:42:28;;;;;;;0.55;0.43;;;14.70;99.90;;;;;;6200275;23;20055;-82
2023/10/22 10:47:22;;;;;;;1.13;0.50;;;14.70;99.90;;;;;;6226578;23;19915;-82
2023/10/22 10:50:20;;;;;;;1.20;0.50;;;14.50;99.90;;;;;;6200686;23;20183;-82
2023/10/22 10:52:49;;;;;;;3.03;0.60;;;14.60;99.90;;;;;;6156335;23;20016;-82
2023/10/22 10:55:14;;;;;;;1.75;0.43;;;14.40;99.90;;;;;;6174173;23;20047;-82
2023/10/22 10:57:46;;;;;;;2.38;0.50;;;14.30;99.90;;;;;;6175494;23;20867;-83
2023/10/22 11:00:19;;;;;;;1.13;0.50;;;14.40;99.90;;;;;;6200376;23;20028;-82
2023/10/22 11:02:47;;;;;;;1.33;0.43;;;14.40;99.90;;;;;;6200975;23;20012;-82
2023/10/22 11:05:14;;;;;;;2.75;0.40;;;14.20;99.90;;;;;;6200006;23;20009;-82
2023/10/22 11:07:42;;;;;;;3.00;1.02;;;14.20;99.90;;;;;;6201576;23;20031;-82
2023/10/22 11:10:16;;;;;;;4.90;0.57;;;14.20;99.90;;;;;;6198169;23;20051;-82
2023/10/22 11:12:45;;;;;;;0.75;0.63;;;14.10;99.90;;;;;;6198869;23;20071;-82
2023/10/22 11:15:12;;;;;;;2.35;0.65;;;13.90;99.90;;;;;;6199845;23;20157;-82
2023/10/22 11:17:40;;;;;;;2.15;0.47;;;13.90;99.90;;;;;;6176161;23;20021;-82
2023/10/22 11:20:07;;;;;;;1.50;0.52;;;14.00;99.90;;;;;;6199947;23;20412;-82
2023/10/22 11:22:35;;;;;;;2.67;0.57;;;14.20;99.90;;;;;;6200589;23;20378;-83
2023/10/22 11:25:03;;;;;;;2.85;0.80;;;14.20;99.90;;;;;;6197427;23;20048;-83
2023/10/22 11:27:31;;;;;;;1.60;0.65;;;14.20;99.90;;;;;;6200210;23;20118;-83
2023/10/22 11:29:57;;;;;;;0.82;0.40;;;13.90;99.90;;;;;;6174635;23;20488;-82
2023/10/22 11:32:22;;;;;;;0.60;0.30;;;13.80;99.90;;;;;;6200355;23;20039;-83
2023/10/22 11:34:59;;;;;;;5.15;0.70;;;13.80;99.90;;;;;;6175182;23;20323;-82
2023/10/22 11:37:42;;;;;;;3.92;1.83;;;13.70;99.90;;;;;;6175555;23;20047;-82
2023/10/22 11:40:28;;;;;;;0.73;0.47;;;13.80;99.90;;;;;;6197866;23;20013;-82
2023/10/22 11:42:55;;;;;;;1.17;0.40;;;13.80;99.90;;;;;;6200826;23;20012;-82
2023/10/22 11:45:21;;;;;;;1.98;0.30;;;13.70;99.90;;;;;;6200120;23;20429;-82
2023/10/22 11:47:47;;;;;;;0.75;0.38;;;13.60;99.90;;;;;;6175635;23;20214;-82
2023/10/22 11:50:15;;;;;;;1.50;0.47;;;13.50;99.90;;;;;;6200107;23;20072;-82
2023/10/22 11:52:51;;;;;;;1.33;0.50;;;13.50;99.90;;;;;;6199116;23;20446;-83
2023/10/22 11:55:18;;;;;;;0.55;0.40;;;13.40;99.90;;;;;;6197668;23;20017;-82
2023/10/22 11:57:45;;;;;;;0.75;0.50;;;13.20;99.90;;;;;;6199493;23;20092;-82
2023/10/22 12:00:11;;;;;;;0.77;0.40;;;13.20;99.90;;;;;;6174343;23;20391;-82
2023/10/22 12:02:38;;;;;;;0.70;0.55;;;13.10;99.90;;;;;;6176103;23;20016;-82
2023/10/22 12:05:05;;;;;;;0.38;0.30;;;13.00;99.90;;;;;;6199918;23;20004;-82
2023/10/22 12:07:31;;;;;;;3.85;0.50;;;13.00;99.90;;;;;;6175289;23;20031;-82
2023/10/22 12:09:57;;;;;;;2.30;0.55;;;13.10;99.90;;;;;;6197320;23;20615;-82
2023/10/22 12:12:24;;;;;;;1.27;0.40;;;13.00;99.90;;;;;;6199751;23;20016;-83
2023/10/22 12:14:49;;;;;;;2.25;0.68;;;13.00;99.90;;;;;;6202526;23;20024;-82
2023/10/22 12:17:17;;;;;;;1.67;0.38;;;13.10;99.90;;;;;;6179572;23;20043;-82
2023/10/22 12:19:43;;;;;;;2.25;0.40;;;13.20;99.90;;;;;;6205023;23;20465;-82
2023/10/22 12:22:08;;;;;;;3.90;0.52;;;14.00;99.90;;;;;;6204426;23;20028;-82
2023/10/22 12:24:34;;;;;;;0.35;0.35;;;14.60;99.90;;;;;;6203613;23;20015;-82
2023/10/22 12:27:00;;;;;;;0.90;0.38;;;15.00;99.90;;;;;;6202183;23;20016;-82
2023/10/22 12:29:26;;;;;;;1.17;0.45;;;14.90;99.90;;;;;;6205136;23;20020;-82
2023/10/22 12:31:55;;;;;;;0.60;0.40;;;15.10;99.90;;;;;;6203801;23;20370;-82
2023/10/22 12:34:21;;;;;;;1.38;0.38;;;14.60;99.90;;;;;;6204814;23;20238;-83
2023/10/22 12:36:46;;;;;;;0.90;0.32;;;14.60;99.90;;;;;;6178878;23;20381;-82
2023/10/22 12:39:12;;;;;;;1.35;0.32;;;15.10;99.90;;;;;;6204214;23;20095;-82
2023/10/22 12:41:38;;;;;;;0.68;0.30;;;15.10;99.90;;;;;;6200192;23;20381;-83
2023/10/22 12:44:04;;;;;;;1.13;0.45;;;15.20;99.90;;;;;;6178673;23;20022;-82
2023/10/22 12:46:30;;;;;;;0.40;0.28;;;15.10;99.90;;;;;;6177454;23;20016;-83
2023/10/22 12:48:56;;;;;;;1.83;0.40;;;14.60;99.90;;;;;;6177592;23;20008;-83
2023/10/22 12:51:22;;;;;;;0.30;0.10;;;14.30;99.90;;;;;;6201973;23;20408;-82
2023/10/22 12:53:52;;;;;;;1.35;0.52;;;14.60;99.90;;;;;;6203841;23;20373;-82